Time;durP1;ratioP1;P1;durP2;ratioP2;P2;SDS_P1;SDS_P2;PMS_P1;PMS_P2;Temp;Humidity;BMP_temperature;BMP_pressure;BME280_temperature;BME280_humidity;BME280_pressure;Samples;Min_cycle;Max_cycle;Signal;HPM_P1;HPM_P2
2022/11/17 00:02:02;;;;;;;25.20;13.93;;;;;;;;;;6165843;23;20020;-87
2022/11/17 00:04:28;;;;;;;17.73;12.18;;;;;;;;;;6190537;23;20059;-88
2022/11/17 00:06:54;;;;;;;18.65;12.15;;;;;;;;;;6165768;23;20025;-88
2022/11/17 00:09:20;;;;;;;20.30;13.57;;;;;;;;;;6165674;23;20056;-88
2022/11/17 00:14:33;;;;;;;22.02;13.45;;;8.10;99.90;;;;;;6190266;23;20017;-88
2022/11/17 00:17:02;;;;;;;20.60;12.20;;;;;;;;;;6165394;23;20024;-88
2022/11/17 00:22:13;;;;;;;18.15;11.80;;;;;;;;;;6190342;23;20576;-88
2022/11/17 00:24:40;;;;;;;20.23;13.02;;;;;;;;;;6165595;23;20017;-88
2022/11/17 00:27:06;;;;;;;14.82;10.68;;;;;;;;;;6165537;23;20024;-88
2022/11/17 00:29:32;;;;;;;15.80;11.48;;;;;;;;;;6166233;23;20079;-88
2022/11/17 00:34:43;;;;;;;21.23;12.38;;;;;;;;;;6190231;23;20067;-88
2022/11/17 00:37:10;;;;;;;17.70;11.27;;;;;;;;;;6165287;23;20450;-88
2022/11/17 00:39:36;;;;;;;20.33;11.82;;;;;;;;;;6165453;23;20028;-88
2022/11/17 00:42:02;;;;;;;20.00;11.52;;;;;;;;;;6165379;23;20064;-88
2022/11/17 00:44:28;;;;;;;16.33;10.88;;;;;;;;;;6166036;23;20454;-88
2022/11/17 00:46:55;;;;;;;15.50;11.23;;;;;;;;;;6190123;23;20108;-88
2022/11/17 00:49:24;;;;;;;16.17;11.27;;;;;;;;;;6166647;23;20063;-88
2022/11/17 00:51:54;;;;;;;14.65;10.07;;;;;;;;;;6190168;23;20075;-89
2022/11/17 00:54:20;;;;;;;14.75;10.85;;;;;;;;;;6190063;23;20064;-88
2022/11/17 00:56:46;;;;;;;15.90;11.15;;;;;;;;;;6165717;23;20028;-88
2022/11/17 00:59:13;;;;;;;13.32;10.75;;;;;;;;;;6166067;23;20035;-87
2022/11/17 01:01:39;;;;;;;13.63;11.10;;;;;;;;;;6165494;23;20021;-88
2022/11/17 01:04:05;;;;;;;14.98;9.60;;;;;;;;;;6165256;23;20052;-88
2022/11/17 01:06:31;;;;;;;16.35;10.57;;;;;;;;;;6165009;23;20458;-88
2022/11/17 01:08:59;;;;;;;14.75;10.82;;;;;;;;;;6166533;23;20021;-88
2022/11/17 01:11:25;;;;;;;14.05;10.52;;;;;;;;;;6165086;23;20059;-88
2022/11/17 01:13:53;;;;;;;15.32;9.90;;;;;;;;;;6165166;23;20020;-88
2022/11/17 01:16:19;;;;;;;12.95;8.90;;;;;;;;;;6164846;23;20072;-88
2022/11/17 01:18:46;;;;;;;16.20;9.93;;;;;;;;;;6165650;23;20017;-88
2022/11/17 01:21:13;;;;;;;13.38;9.35;;;;;;;;;;6165091;23;20082;-88
2022/11/17 01:23:41;;;;;;;12.48;9.80;;;;;;;;;;6165036;23;20020;-88
2022/11/17 01:26:08;;;;;;;15.73;10.27;;;;;;;;;;6164850;23;20347;-88
2022/11/17 01:28:35;;;;;;;16.33;10.05;;;;;;;;;;6165336;23;20024;-88
2022/11/17 01:31:02;;;;;;;13.85;9.73;;;;;;;;;;6166344;23;20056;-89
2022/11/17 01:33:28;;;;;;;13.85;10.63;;;;;;;;;;6189693;23;20103;-88
2022/11/17 01:35:54;;;;;;;12.57;8.85;;;;;;;;;;6189631;23;20024;-88
2022/11/17 01:38:21;;;;;;;16.73;10.63;;;;;;;;;;6190363;23;20031;-88
2022/11/17 01:40:47;;;;;;;12.95;9.70;;;;;;;;;;6189623;23;20017;-88
2022/11/17 01:43:13;;;;;;;12.50;9.20;;;;;;;;;;6166226;23;20031;-88
2022/11/17 01:45:39;;;;;;;16.35;11.45;;;;;;;;;;6189554;23;20027;-88
2022/11/17 01:48:05;;;;;;;12.43;10.10;;;;;;;;;;6164513;23;20124;-88
2022/11/17 01:50:33;;;;;;;13.13;10.70;;;;;;;;;;6189912;23;20468;-88
2022/11/17 01:53:01;;;;;;;12.52;9.65;;;;;;;;;;6164700;23;20099;-87
2022/11/17 01:55:34;;;;;;;17.20;9.98;;;;;;;;;;6164427;23;20017;-88
2022/11/17 01:58:19;;;;;;;12.77;10.40;;;;;;;;;;6165075;23;20524;-88
2022/11/17 02:00:45;;;;;;;13.82;9.60;;;;;;;;;;6189525;23;20327;-88
2022/11/17 02:03:12;;;;;;;13.55;9.85;;;;;;;;;;6189420;23;20023;-88
2022/11/17 02:05:45;;;;;;;15.88;10.60;;;;;;;;;;6165226;23;20021;-88
2022/11/17 02:08:11;;;;;;;13.07;10.63;;;;;;;;;;6165616;23;20020;-88
2022/11/17 02:10:38;;;;;;;17.02;11.70;;;;;;;;;;6164494;23;20504;-88
2022/11/17 02:13:04;;;;;;;24.63;12.68;;;;;;;;;;6164576;23;20485;-88
2022/11/17 02:15:31;;;;;;;17.85;14.13;;;;;;;;;;6164278;23;20071;-88
2022/11/17 02:17:59;;;;;;;18.55;11.70;;;;;;;;;;6189768;23;20024;-88
2022/11/17 02:20:35;;;;;;;15.93;12.05;;;;;;;;;;6189248;23;20450;-88
2022/11/17 02:23:19;;;;;;;18.58;13.15;;;;;;;;;;6164423;23;20075;-88
2022/11/17 02:25:45;;;;;;;17.17;12.13;;;;;;;;;;6164321;23;20035;-88
2022/11/17 02:28:21;;;;;;;18.35;12.25;;;;;;;;;;6164448;23;20020;-87
2022/11/17 02:30:54;;;;;;;14.57;11.90;;;;;;;;;;6189080;23;20032;-88
2022/11/17 02:33:26;;;;;;;16.60;12.93;;;;;;;;;;6165832;23;20023;-88
2022/11/17 02:36:01;;;;;;;15.98;12.35;;;;;;;;;;6189140;23;20017;-89
2022/11/17 02:38:27;;;;;;;18.40;13.57;;;;;;;;;;6165128;23;20024;-89
2022/11/17 02:41:08;;;;;;;16.30;11.90;;;;;;;;;;6165114;23;20053;-88
2022/11/17 02:46:25;;;;;;;19.83;12.85;;;;;;;;;;6188810;23;20082;-88
2022/11/17 02:48:56;;;;;;;17.60;12.55;;;;;;;;;;6164420;23;20027;-88
2022/11/17 02:51:23;;;;;;;17.60;12.50;;;;;;;;;;6189102;23;20071;-88
2022/11/17 02:53:51;;;;;;;14.48;10.25;;;;;;;;;;6165632;23;20024;-89
2022/11/17 02:56:18;;;;;;;19.45;12.82;;;;;;;;;;6164214;23;20477;-90
2022/11/17 02:58:44;;;;;;;16.45;12.05;;;;;;;;;;6165592;23;20021;-90
2022/11/17 03:01:49;;;;;;;14.65;12.02;;;8.00;99.90;;;;;;6164196;23;20101;-91
2022/11/17 03:04:53;;;;;;;14.68;10.45;;;;;;;;;;6163974;23;20023;-91
2022/11/17 03:07:19;;;;;;;15.88;11.90;;;;;;;;;;6076392;23;20026;-91
2022/11/17 03:09:49;;;;;;;16.27;10.88;;;;;;;;;;6099612;23;20026;-91
2022/11/17 03:12:28;;;;;;;15.43;10.05;;;;;;;;;;6099798;23;20024;-90
2022/11/17 03:15:01;;;;;;;12.10;10.35;;;;;;;;;;6099705;23;20064;-91
2022/11/17 03:17:51;;;;;;;13.97;10.10;;;8.00;99.90;;;;;;6099428;23;20100;-92
2022/11/17 03:20:44;;;;;;;14.32;10.95;;;;;;;;;;6100470;23;20620;-92
2022/11/17 03:23:13;;;;;;;13.60;10.27;;;;;;;;;;6020191;23;20054;-91
2022/11/17 03:25:41;;;;;;;13.98;10.93;;;;;;;;;;6044763;23;20023;-91
2022/11/17 03:28:09;;;;;;;14.50;9.40;;;;;;;;;;6020103;23;20026;-91
2022/11/17 03:30:37;;;;;;;13.23;10.70;;;;;;;;;;6043828;23;20023;-91
2022/11/17 03:33:06;;;;;;;13.40;10.48;;;;;;;;;;6020191;23;20346;-91
2022/11/17 03:35:34;;;;;;;12.48;10.45;;;;;;;;;;6020326;23;20500;-92
2022/11/17 03:38:04;;;;;;;12.95;9.43;;;;;;;;;;6033999;23;20104;-91
2022/11/17 03:40:31;;;;;;;16.17;10.73;;;;;;;;;;6048720;23;20014;-91
2022/11/17 03:42:59;;;;;;;13.43;9.88;;;;;;;;;;6072784;23;20065;-91
2022/11/17 03:45:29;;;;;;;18.38;10.63;;;;;;;;;;6048377;23;20479;-92
2022/11/17 03:48:04;;;;;;;14.07;11.00;;;;;;;;;;6047936;23;20022;-89
2022/11/17 03:50:35;;;;;;;15.57;11.52;;;;;;;;;;6048221;23;20026;-89
2022/11/17 03:53:02;;;;;;;15.80;11.18;;;;;;;;;;6048211;23;20344;-89
2022/11/17 03:55:33;;;;;;;16.58;12.02;;;;;;;;;;6047988;23;20123;-89
2022/11/17 03:58:11;;;;;;;14.98;10.88;;;;;;;;;;6072056;23;20101;-89
2022/11/17 04:00:38;;;;;;;13.95;9.75;;;;;;;;;;6141012;23;20458;-89
2022/11/17 04:03:05;;;;;;;15.73;11.80;;;;;;;;;;6167139;23;20020;-89
2022/11/17 04:05:31;;;;;;;15.00;11.20;;;;;;;;;;6166601;23;20056;-89
2022/11/17 04:07:57;;;;;;;12.68;9.90;;;;;;;;;;6165766;23;20025;-88
2022/11/17 04:10:26;;;;;;;13.80;10.07;;;;;;;;;;6165801;23;20060;-89
2022/11/17 04:15:57;;;;;;;16.15;11.40;;;;;;;;;;6190258;23;20052;-89
2022/11/17 04:18:24;;;;;;;12.82;10.35;;;;;;;;;;6165553;23;20021;-89
2022/11/17 04:20:51;;;;;;;12.60;9.30;;;;;;;;;;6165673;23;20466;-89
2022/11/17 04:23:17;;;;;;;14.15;9.32;;;;;;;;;;6165684;23;20152;-89
2022/11/17 04:28:36;;;;;;;18.73;9.55;;;;;;;;;;6190355;23;20020;-89
2022/11/17 04:31:02;;;;;;;11.18;9.02;;;;;;;;;;6166554;23;20027;-89
2022/11/17 04:33:28;;;;;;;13.27;8.95;;;;;;;;;;6165422;23;20021;-89
2022/11/17 04:35:55;;;;;;;11.60;9.48;;;;;;;;;;6165439;23;20032;-89
2022/11/17 04:38:21;;;;;;;11.65;9.93;;;;;;;;;;6165556;23;20354;-89
2022/11/17 04:43:32;;;;;;;12.55;8.88;;;;;;;;;;6190172;23;20346;-89
2022/11/17 04:45:59;;;;;;;13.00;9.27;;;;;;;;;;6190158;23;20028;-89
2022/11/17 04:48:25;;;;;;;9.50;7.80;;;;;;;;;;6165375;23;20021;-88
2022/11/17 04:50:55;;;;;;;17.48;9.32;;;;;;;;;;6217009;23;20032;-89
2022/11/17 04:53:21;;;;;;;8.52;7.05;;;;;;;;;;6165229;23;20343;-89
2022/11/17 04:55:47;;;;;;;13.13;9.18;;;;;;;;;;6165821;23;20024;-89
2022/11/17 04:58:13;;;;;;;11.45;8.25;;;;;;;;;;6190122;23;20047;-88
2022/11/17 05:00:39;;;;;;;13.07;8.40;;;;;;;;;;6165272;23;20016;-88
2022/11/17 05:03:05;;;;;;;11.77;8.65;;;;;;;;;;6165258;23;20020;-88
2022/11/17 05:05:31;;;;;;;11.38;8.57;;;;;;;;;;6190392;23;20096;-88
2022/11/17 05:07:57;;;;;;;10.05;8.15;;;;;;;;;;6165048;23;20020;-88
2022/11/17 05:13:20;;;;;;;9.30;8.27;;;;;;;;;;6218408;23;20027;-92
2022/11/17 05:13:23;;;;;;;10.02;7.82;;;;;;;;;;6191313;23;20075;-89
2022/11/17 05:18:38;;;;;;;12.77;9.43;;;;;;;;;;6190139;23;20020;-90
2022/11/17 05:21:05;;;;;;;9.93;8.07;;;;;;;;;;6165421;23;20470;-90
2022/11/17 05:26:16;;;;;;;11.00;8.63;;;;;;;;;;6189974;23;20029;-91
2022/11/17 05:28:43;;;;;;;11.43;9.25;;;;;;;;;;6165269;23;20027;-91
2022/11/17 05:31:09;;;;;;;11.63;8.75;;;;;;;;;;6190015;23;20043;-88
2022/11/17 05:33:35;;;;;;;10.85;9.18;;;;;;;;;;6165131;23;20067;-89
2022/11/17 05:36:01;;;;;;;12.85;7.97;;;;;;;;;;6165125;23;20020;-90
2022/11/17 05:38:27;;;;;;;10.18;7.82;;;;;;;;;;6165315;23;20101;-88
2022/11/17 05:40:53;;;;;;;9.30;7.95;;;;;;;;;;6165186;23;20020;-91
2022/11/17 05:43:20;;;;;;;14.65;9.18;;;;;;;;;;6167149;23;20056;-90
2022/11/17 05:45:46;;;;;;;23.58;8.23;;;;;;;;;;6166647;23;20031;-92
2022/11/17 05:48:12;;;;;;;13.98;8.70;;;;;;;;;;6166630;23;20056;-89
2022/11/17 05:50:38;;;;;;;13.48;8.95;;;;;;;;;;6165046;23;20025;-88
2022/11/17 05:53:05;;;;;;;8.02;7.10;;;;;;;;;;6166651;23;20103;-88
2022/11/17 05:55:31;;;;;;;9.70;7.45;;;;;;;;;;6165692;23;20021;-89
2022/11/17 05:57:59;;;;;;;9.25;7.53;;;;;;;;;;6190739;23;20021;-89
2022/11/17 06:00:25;;;;;;;10.57;7.75;;;;;;;;;;6166100;23;20529;-89
2022/11/17 06:02:55;;;;;;;13.48;7.43;;;;;;;;;;6166443;23;20052;-89
2022/11/17 06:05:22;;;;;;;9.30;7.60;;;;;;;;;;6166655;23;20021;-90
2022/11/17 06:07:50;;;;;;;10.00;8.13;;;;;;;;;;6167568;23;20075;-90
2022/11/17 06:10:16;;;;;;;9.15;7.68;;;;;;;;;;6167111;23;20017;-87
2022/11/17 06:12:42;;;;;;;8.10;6.97;;;;;;;;;;6217497;23;20095;-90
2022/11/17 06:15:09;;;;;;;7.90;7.10;;;;;;;;;;6190640;23;20020;-90
2022/11/17 06:17:44;;;;;;;14.98;8.27;;;;;;;;;;6190346;23;20381;-91
2022/11/17 06:20:31;;;;;;;8.20;7.10;;;;;;;;;;6167590;23;20036;-88
2022/11/17 06:22:59;;;;;;;10.20;8.02;;;;;;;;;;6166606;23;20406;-91
2022/11/17 06:25:27;;;;;;;7.40;6.63;;;;;;;;;;6190989;23;20021;-88
2022/11/17 06:27:53;;;;;;;9.68;7.38;;;;;;;;;;6190710;23;20031;-89
2022/11/17 06:30:19;;;;;;;8.63;6.90;;;;;;;;;;6166059;23;20114;-88
2022/11/17 06:32:46;;;;;;;11.45;7.68;;;;;;;;;;6166964;23;20025;-91
2022/11/17 06:35:15;;;;;;;10.43;7.90;;;;;;;;;;6167839;23;20434;-90
2022/11/17 06:37:41;;;;;;;8.05;6.97;;;;;;;;;;6216567;23;20021;-91
2022/11/17 06:40:08;;;;;;;9.38;7.40;;;;;;;;;;6165067;23;20021;-90
2022/11/17 06:45:19;;;;;;;9.85;7.70;;;;;;;;;;6189914;23;20414;-90
2022/11/17 06:47:45;;;;;;;8.65;6.63;;;;;;;;;;6164193;23;20047;-87
2022/11/17 06:50:11;;;;;;;8.10;6.03;;;;;;;;;;6164357;23;20454;-87
2022/11/17 06:52:37;;;;;;;8.43;6.45;;;;;;;;;;6165042;23;20385;-87
2022/11/17 06:55:04;;;;;;;6.30;5.68;;;;;;;;;;6190583;23;20025;-87
2022/11/17 06:57:30;;;;;;;7.45;5.90;;;;;;;;;;6166519;23;20024;-87
2022/11/17 06:59:56;;;;;;;7.55;6.03;;;;;;;;;;6166255;23;20144;-87
2022/11/17 07:02:22;;;;;;;7.50;6.22;;;;;;;;;;6166412;23;20183;-87
2022/11/17 07:04:48;;;;;;;7.90;5.82;;;;;;;;;;6166158;23;20362;-88
2022/11/17 07:07:14;;;;;;;7.82;5.63;;;;;;;;;;6191097;23;20021;-87
2022/11/17 07:09:40;;;;;;;9.02;5.43;;;;;;;;;;6167739;23;20025;-87
2022/11/17 07:12:06;;;;;;;8.43;5.38;;;;;;;;;;6166187;23;20027;-87
2022/11/17 07:14:32;;;;;;;8.05;6.25;;;;;;;;;;6166150;23;20024;-87
2022/11/17 07:16:58;;;;;;;7.20;4.68;;;;;;;;;;6166002;23;20025;-88
2022/11/17 07:19:24;;;;;;;8.02;6.57;;;;;;;;;;6166228;23;20052;-87
2022/11/17 07:21:50;;;;;;;7.60;6.35;;;;;;;;;;6166406;23;20020;-87
2022/11/17 07:24:16;;;;;;;8.13;6.03;;;;;;;;;;6166087;23;20021;-88
2022/11/17 07:26:42;;;;;;;8.60;6.57;;;;;;;;;;6166106;23;20083;-87
2022/11/17 07:29:08;;;;;;;7.57;6.47;;;;;;;;;;6167373;23;20012;-88
2022/11/17 07:31:35;;;;;;;7.75;6.68;;;;;;;;;;6166757;23;20107;-87
2022/11/17 07:34:02;;;;;;;8.15;6.15;;;;;;;;;;6191168;23;20019;-87
2022/11/17 07:36:28;;;;;;;6.93;5.45;;;;;;;;;;6165795;23;20350;-87
2022/11/17 07:38:54;;;;;;;8.30;6.80;;;;;;;;;;6166078;23;20409;-87
2022/11/17 07:41:20;;;;;;;6.90;5.95;;;;;;;;;;6190712;23;20462;-88
2022/11/17 07:43:46;;;;;;;6.35;5.45;;;;;;;;;;6166318;23;20083;-87
2022/11/17 07:46:13;;;;;;;8.75;6.25;;;;;;;;;;6165919;23;20021;-87
2022/11/17 07:48:40;;;;;;;6.80;6.05;;;;;;;;;;6165870;23;20027;-87
2022/11/17 07:51:06;;;;;;;6.55;5.35;;;;;;;;;;6165820;23;20021;-87
2022/11/17 07:53:33;;;;;;;12.05;7.25;;;;;;;;;;6165696;23;20017;-88
2022/11/17 07:56:07;;;;;;;7.55;6.15;;;;;;;;;;6190600;23;20028;-88
2022/11/17 07:58:33;;;;;;;8.83;5.93;;;;;;;;;;6166463;23;20320;-87
2022/11/17 08:00:59;;;;;;;7.05;5.10;;;;;;;;;;6190578;23;20255;-87
2022/11/17 08:03:25;;;;;;;7.03;5.93;;;;;;;;;;6165917;23;20017;-87
2022/11/17 08:05:52;;;;;;;9.13;5.28;;;;;;;;;;6165283;23;20103;-87
2022/11/17 08:08:18;;;;;;;6.60;4.93;;;;;;;;;;6165608;23;20032;-87
2022/11/17 08:10:44;;;;;;;5.22;4.28;;;;;;;;;;6165740;23;20020;-87
2022/11/17 08:13:11;;;;;;;6.35;5.13;;;;;;;;;;6165802;23;20068;-87
2022/11/17 08:15:37;;;;;;;7.35;5.10;;;;;;;;;;6165428;23;20020;-87
2022/11/17 08:18:05;;;;;;;6.38;4.90;;;;;;;;;;6190465;23;20024;-88
2022/11/17 08:20:31;;;;;;;4.60;4.05;;;;;;;;;;6165569;23;20099;-87
2022/11/17 08:22:57;;;;;;;6.15;4.97;;;;;;;;;;6165480;23;20530;-87
2022/11/17 08:25:24;;;;;;;5.00;4.25;;;;;;;;;;6166185;23;20017;-87
2022/11/17 08:27:53;;;;;;;5.50;4.15;;;;;;;;;;6166482;23;20446;-87
2022/11/17 08:30:19;;;;;;;4.22;3.75;;;;;;;;;;6165458;23;20017;-87
2022/11/17 08:32:50;;;;;;;6.47;4.50;;;;;;;;;;6165658;23;20056;-88
2022/11/17 08:35:16;;;;;;;5.25;4.07;;;;;;;;;;6165288;23;20024;-87
2022/11/17 08:37:42;;;;;;;6.82;4.55;;;;;;;;;;6190283;23;20453;-87
2022/11/17 08:40:10;;;;;;;6.18;4.22;;;;;;;;;;6165364;23;20067;-87
2022/11/17 08:42:36;;;;;;;6.82;4.53;;;;;;;;;;6190336;23;20485;-89
2022/11/17 08:45:03;;;;;;;4.78;3.97;;;;;;;;;;6165585;23;20031;-89
2022/11/17 08:47:29;;;;;;;7.43;5.03;;;;;;;;;;6190330;23;20027;-87
2022/11/17 08:49:55;;;;;;;6.30;4.70;;;;;;;;;;6191656;23;20025;-90
2022/11/17 08:52:21;;;;;;;5.55;4.95;;;;;;;;;;6165491;23;20099;-88
2022/11/17 08:54:48;;;;;;;5.18;4.50;;;;;;;;;;6165812;23;20397;-90
2022/11/17 08:57:14;;;;;;;8.63;4.55;;;;;;;;;;6190447;23;20028;-88
2022/11/17 08:59:40;;;;;;;5.15;4.65;;;;;;;;;;6166702;23;20028;-90
2022/11/17 09:02:06;;;;;;;6.90;4.68;;;;;;;;;;6165983;23;20030;-90
2022/11/17 09:04:33;;;;;;;6.43;5.13;;;;;;;;;;6165611;23;20102;-90
2022/11/17 09:06:59;;;;;;;6.18;5.57;;;;;;;;;;6165894;23;20078;-88
2022/11/17 09:09:25;;;;;;;5.32;4.45;;;;;;;;;;6166189;23;20021;-89
2022/11/17 09:11:51;;;;;;;5.60;4.47;;;;;;;;;;6166382;23;20056;-88
2022/11/17 09:14:17;;;;;;;6.50;5.18;;;;;;;;;;6190636;23;20024;-88
2022/11/17 09:16:43;;;;;;;5.25;4.68;;;;;;;;;;6165446;23;20032;-87
2022/11/17 09:19:09;;;;;;;5.88;5.00;;;;;;;;;;6190951;23;20350;-92
2022/11/17 09:21:35;;;;;;;9.20;5.97;;;;;;;;;;6167515;23;20106;-89
2022/11/17 09:24:01;;;;;;;5.40;4.35;;;;;;;;;;6166340;23;20476;-93
2022/11/17 09:26:27;;;;;;;8.73;5.25;;;;;;;;;;6166240;23;20553;-91
2022/11/17 09:28:53;;;;;;;5.97;4.90;;;;;;;;;;6166186;23;20461;-89
2022/11/17 09:31:21;;;;;;;7.00;5.03;;;;;;;;;;6165377;23;20029;-89
2022/11/17 09:33:47;;;;;;;5.75;5.05;;;;;;;;;;6165428;23;20040;-89
2022/11/17 09:36:14;;;;;;;5.72;4.53;;;;;;;;;;6165337;23;20021;-89
2022/11/17 09:38:40;;;;;;;6.13;4.95;;;;;;;;;;6190265;23;20020;-90
2022/11/17 09:41:16;;;;;;;5.35;4.85;;;;;;;;;;6165775;23;20032;-90
2022/11/17 09:43:51;;;;;;;5.55;4.63;;;;;;;;;;6165760;23;20458;-91
2022/11/17 09:46:24;;;;;;;5.30;4.68;;;;;;;;;;6165627;23;20044;-90
2022/11/17 09:48:53;;;;;;;6.00;4.82;;;;;;;;;;6165357;23;20025;-88
2022/11/17 09:51:21;;;;;;;6.65;5.47;;;;;;;;;;6164653;23;20028;-88
2022/11/17 09:53:51;;;;;;;7.53;5.18;;;;;;;;;;6164654;23;20031;-88
2022/11/17 09:56:17;;;;;;;6.30;4.72;;;;;;;;;;6164553;23;20034;-87
2022/11/17 09:58:43;;;;;;;5.93;4.75;;;;;;;;;;6164721;23;20020;-88
2022/11/17 10:01:13;;;;;;;6.07;5.10;;;;;;;;;;6164625;23;20124;-87
2022/11/17 10:03:41;;;;;;;5.78;4.72;;;;;;;;;;6165216;23;20071;-87
2022/11/17 10:06:11;;;;;;;5.35;4.85;;;;;;;;;;6164488;23;20064;-88
2022/11/17 10:08:51;;;;;;;5.43;4.68;;;;;;;;;;6164420;23;20035;-88
2022/11/17 10:11:33;;;;;;;5.22;4.55;;;;;;;;;;6165084;23;20024;-88
2022/11/17 10:14:09;;;;;;;7.45;5.38;;;;;;;;;;6190733;23;20027;-87
2022/11/17 10:16:37;;;;;;;6.38;4.72;;;;;;;;;;6165152;23;20025;-87
2022/11/17 10:19:26;;;;;;;5.05;4.45;;;;;;;;;;6165711;23;20016;-89
2022/11/17 10:21:54;;;;;;;6.30;5.18;;;;;;;;;;6018570;23;20023;-87
2022/11/17 10:24:38;;;;;;;4.90;4.40;;;;;;;;;;6018744;23;20025;-87
2022/11/17 10:27:06;;;;;;;5.70;4.93;;;;;;;;;;6018564;23;20802;-87
2022/11/17 10:29:32;;;;;;;6.13;5.10;;;;;;;;;;6041900;23;20050;-88
2022/11/17 10:31:59;;;;;;;6.38;4.72;;;;;;;;;;6042014;23;20110;-87
2022/11/17 10:34:36;;;;;;;4.95;4.18;;;;;;;;;;6042100;23;20058;-88
2022/11/17 10:37:25;;;;;;;5.93;5.32;;;;;;;;;;6018231;23;20033;-88
2022/11/17 10:40:01;;;;;;;6.90;4.47;;;;;;;;;;6005381;23;20349;-92
2022/11/17 10:42:28;;;;;;;6.35;5.10;;;;;;;;;;6019125;23;20075;-90
2022/11/17 10:44:56;;;;;;;5.13;4.65;;;;;;;;;;6042905;23;20019;-93
2022/11/17 10:47:27;;;;;;;5.70;5.10;;;;;;;;;;6016310;23;20499;-93
2022/11/17 10:50:08;;;;;;;5.68;5.07;;;;;;;;;;6019359;23;20026;-91
2022/11/17 10:52:34;;;;;;;5.53;4.95;;;;;;;;;;6043677;23;20163;-88
2022/11/17 10:55:18;;;;;;;5.45;4.43;;;7.20;99.90;;;;;;6020090;23;20022;-87
2022/11/17 10:57:45;;;;;;;;;;;7.20;99.90;;;;;;6025919;23;20027;-88
2022/11/17 11:00:22;;;;;;;7.47;5.43;;;;;;;;;;6164859;23;19962;-87
2022/11/17 11:02:48;;;;;;;4.38;3.97;;;;;;;;;;6166382;23;20025;-91
2022/11/17 11:05:20;;;;;;;5.60;4.50;;;;;;;;;;6165341;23;20078;-91
2022/11/17 11:07:46;;;;;;;5.53;4.43;;;;;;;;;;6190037;23;20025;-93
2022/11/17 11:10:12;;;;;;;5.97;4.68;;;;;;;;;;6165263;23;20024;-90
2022/11/17 11:12:45;;;;;;;4.70;4.22;;;;;;;;;;6165709;23;20025;-90
2022/11/17 11:15:16;;;;;;;10.60;5.07;;;;;;;;;;6189985;23;20087;-92
2022/11/17 11:17:42;;;;;;;5.05;4.55;;;;;;;;;;6190718;23;20025;-94
2022/11/17 11:20:12;;;;;;;4.88;4.38;;;;;;;;;;6165033;23;20027;-93
2022/11/17 11:22:41;;;;;;;6.63;4.55;;;;;;;;;;6190143;23;20055;-93
2022/11/17 11:25:26;;;;;;;6.10;4.63;;;;;;;;;;6190045;23;20074;-92
2022/11/17 11:27:52;;;;;;;4.32;3.63;;;;;;;;;;6165490;23;20454;-90
2022/11/17 11:30:19;;;;;;;4.15;3.78;;;;;;;;;;6189816;23;20025;-91
2022/11/17 11:32:45;;;;;;;6.25;4.13;;;;;;;;;;6189652;23;20331;-91
2022/11/17 11:35:26;;;;;;;5.22;3.78;;;;;;;;;;6189587;23;20122;-91
2022/11/17 11:37:52;;;;;;;5.82;4.85;;;;;;;;;;6164731;23;20052;-93
2022/11/17 11:40:21;;;;;;;5.35;4.72;;;;;;;;;;6164833;23;20017;-89
2022/11/17 11:42:47;;;;;;;5.13;4.18;;;;;;;;;;6166594;23;20362;-93
2022/11/17 11:45:13;;;;;;;5.90;4.30;;;;;;;;;;6166763;23;20052;-88
2022/11/17 11:47:48;;;;;;;5.18;4.10;;;;;;;;;;6192251;23;20028;-92
2022/11/17 11:50:21;;;;;;;5.15;4.65;;;;;;;;;;6192848;23;20056;-91
2022/11/17 11:52:49;;;;;;;6.82;4.35;;;;;;;;;;6166527;23;20043;-91
2022/11/17 11:55:21;;;;;;;5.63;4.63;;;;;;;;;;6166259;23;20021;-91
2022/11/17 11:57:51;;;;;;;5.35;4.63;;;;;;;;;;6191181;23;20031;-88
2022/11/17 12:00:20;;;;;;;5.68;4.80;;;;;;;;;;6166266;23;20099;-89
2022/11/17 12:03:05;;;;;;;6.20;5.15;;;;;;;;;;6165892;23;20400;-91
2022/11/17 12:05:32;;;;;;;7.82;5.40;;;;;;;;;;6191134;23;20025;-89
2022/11/17 12:08:13;;;;;;;11.50;4.22;;;;;;;;;;6166186;23;20017;-86
2022/11/17 12:10:42;;;;;;;5.10;4.00;;;;;;;;;;6166436;23;20060;-88
2022/11/17 12:13:12;;;;;;;5.88;4.90;;;;;;;;;;6165985;23;20095;-91
2022/11/17 12:15:38;;;;;;;6.50;5.25;;;;;;;;;;6166187;23;20020;-87
2022/11/17 12:18:04;;;;;;;6.13;5.05;;;;;;;;;;6166977;23;20025;-89
2022/11/17 12:20:33;;;;;;;6.78;5.70;;;;;;;;;;6192176;23;20017;-88
2022/11/17 12:23:07;;;;;;;5.63;5.13;;;;;;;;;;6166790;23;20020;-89
2022/11/17 12:25:34;;;;;;;5.65;4.82;;;;;;;;;;6166463;23;20023;-87
2022/11/17 12:28:20;;;;;;;6.70;4.95;;;;;;;;;;6165540;23;20056;-87
2022/11/17 12:30:47;;;;;;;6.05;4.82;;;;;;;;;;6165072;23;20103;-87
2022/11/17 12:33:13;;;;;;;5.65;4.28;;;;;;;;;;6165461;23;20450;-88
2022/11/17 12:35:39;;;;;;;6.35;5.53;;;;;;;;;;6165655;23;20021;-90
2022/11/17 12:38:15;;;;;;;7.15;4.95;;;;;;;;;;6165130;23;20024;-88
2022/11/17 12:40:42;;;;;;;5.25;4.75;;;;;;;;;;6190186;23;20023;-87
2022/11/17 12:43:26;;;;;;;6.32;5.55;;;;;;;;;;6165396;23;20025;-87
2022/11/17 12:45:52;;;;;;;5.88;4.97;;;;;;;;;;6165285;23;20020;-88
2022/11/17 12:48:23;;;;;;;6.90;4.63;;;;;;;;;;6190855;23;20124;-87
2022/11/17 12:50:52;;;;;;;5.85;4.95;;;;;;;;;;6189978;23;20470;-88
2022/11/17 12:53:24;;;;;;;6.68;5.22;;;;;;;;;;6164946;23;20020;-87
2022/11/17 12:55:56;;;;;;;7.93;4.55;;;;;;;;;;6165092;23;20458;-87
2022/11/17 12:58:42;;;;;;;7.05;4.55;;;;;;;;;;6165432;23;20024;-88
2022/11/17 13:01:11;;;;;;;6.93;4.80;;;;;;;;;;6165075;23;20074;-88
2022/11/17 13:03:41;;;;;;;5.05;4.05;;;;;;;;;;6164999;23;20339;-88
2022/11/17 13:06:13;;;;;;;6.80;4.10;;;;;;;;;;6164963;23;20020;-87
2022/11/17 13:08:39;;;;;;;4.95;4.45;;;;;;;;;;6165360;23;20024;-88
2022/11/17 13:11:16;;;;;;;6.07;4.35;;;;;;;;;;6165888;23;20300;-87
2022/11/17 13:13:42;;;;;;;5.00;4.20;;;;;;;;;;6189905;23;20021;-87
2022/11/17 13:16:12;;;;;;;4.57;3.85;;;;;;;;;;6165044;23;20342;-87
2022/11/17 13:18:39;;;;;;;5.53;4.03;;;;;;;;;;6189770;23;20024;-88
2022/11/17 13:21:15;;;;;;;5.97;4.78;;;;;;;;;;6164954;23;20047;-87
2022/11/17 13:23:44;;;;;;;5.18;4.65;;;;;;;;;;6189712;23;20021;-88
2022/11/17 13:26:19;;;;;;;4.30;3.88;;;;;;;;;;6164899;23;20017;-88
2022/11/17 13:28:45;;;;;;;5.55;4.88;;;;;;;;;;6165155;23;20103;-88
2022/11/17 13:31:19;;;;;;;5.18;4.30;;;;;;;;;;6165503;23;20020;-88
2022/11/17 13:33:58;;;;;;;5.15;4.57;;;;;;;;;;6190985;23;20020;-88
2022/11/17 13:36:26;;;;;;;5.20;4.50;;;;;;;;;;6164643;23;20047;-88
2022/11/17 13:38:59;;;;;;;5.57;4.53;;;;;;;;;;6166031;23;20020;-88
2022/11/17 13:41:25;;;;;;;5.35;4.22;;;;;;;;;;6165524;23;20380;-88
2022/11/17 13:43:52;;;;;;;4.45;4.03;;;;;;;;;;6166148;23;20020;-88
2022/11/17 13:46:18;;;;;;;5.03;4.15;;;;;;;;;;6164634;23;20024;-88
2022/11/17 13:48:45;;;;;;;4.75;4.15;;;;;;;;;;6164772;23;20516;-87
2022/11/17 13:51:33;;;;;;;6.20;4.07;;;;;;;;;;6164692;23;20024;-88
2022/11/17 13:54:05;;;;;;;5.25;4.53;;;;;;;;;;6164463;23;20095;-88
2022/11/17 13:56:37;;;;;;;15.93;5.10;;;;;;;;;;6164722;23;20021;-88
2022/11/17 13:59:21;;;;;;;6.53;5.82;;;;;;;;;;6164688;23;20021;-87
2022/11/17 14:01:48;;;;;;;5.70;4.47;;;;;;;;;;6164518;23;20130;-88
2022/11/17 14:04:15;;;;;;;4.40;4.00;;;;;;;;;;6189014;23;20020;-88
2022/11/17 14:07:00;;;;;;;4.95;4.45;;;;;;;;;;6165134;23;20020;-87
2022/11/17 14:09:30;;;;;;;6.18;5.22;;;;;;;;;;6164400;23;20366;-88
2022/11/17 14:11:57;;;;;;;7.50;4.30;;;;;;;;;;6189218;23;20475;-88
2022/11/17 14:14:32;;;;;;;6.35;4.63;;;;;;;;;;6164257;23;20024;-87
2022/11/17 14:17:07;;;;;;;6.53;5.78;;;;;;;;;;6189093;23;20323;-87
2022/11/17 14:19:33;;;;;;;7.32;5.28;;;;;;;;;;6164838;23;20027;-88
2022/11/17 14:22:03;;;;;;;5.93;5.32;;;;;;;;;;6165791;23;20016;-88
2022/11/17 14:24:30;;;;;;;5.90;4.97;;;;;;;;;;6164445;23;20092;-88
2022/11/17 14:26:57;;;;;;;5.07;4.43;;;;;;;;;;6165197;23;20338;-88
2022/11/17 14:29:23;;;;;;;6.93;4.68;;;;;;;;;;6164409;23;20414;-88
2022/11/17 14:31:49;;;;;;;4.90;4.40;;;;;;;;;;6165790;23;20433;-88
2022/11/17 14:34:15;;;;;;;4.78;3.72;;;;;;;;;;6189151;23;20036;-88
2022/11/17 14:36:41;;;;;;;5.60;4.60;;;;;;;;;;6164163;23;20021;-88
2022/11/17 14:39:13;;;;;;;5.80;5.07;;;;;;;;;;6164277;23;20021;-87
2022/11/17 14:41:40;;;;;;;5.30;4.70;;;;;;;;;;6164434;23;20406;-87
2022/11/17 14:44:07;;;;;;;5.50;4.75;;;;;;;;;;6164225;23;20401;-88
2022/11/17 14:46:33;;;;;;;4.72;3.95;;;;;;;;;;6164322;23;20028;-88
2022/11/17 14:48:59;;;;;;;5.63;5.03;;;;;;;;;;6163762;23;20017;-88
2022/11/17 14:51:25;;;;;;;5.88;4.35;;;;;;;;;;6190426;23;20056;-88
2022/11/17 14:53:52;;;;;;;5.10;4.60;;;;;;;;;;6164740;23;20335;-87
2022/11/17 14:56:20;;;;;;;5.30;4.80;;;;;;;;;;6188896;23;20020;-87
2022/11/17 14:58:46;;;;;;;5.78;4.88;;;;;;;;;;6164496;23;20031;-88
2022/11/17 15:01:24;;;;;;;5.88;4.75;;;;;;;;;;6164898;23;20024;-88
2022/11/17 15:03:51;;;;;;;5.35;4.82;;;;;;;;;;6188850;23;20409;-87
2022/11/17 15:06:17;;;;;;;6.20;5.53;;;;;;;;;;6164189;23;20025;-88
2022/11/17 15:08:43;;;;;;;5.15;4.65;;;;;;;;;;6164067;23;20103;-87
2022/11/17 15:11:12;;;;;;;6.57;4.82;;;;;;;;;;6164185;23;20397;-88
2022/11/17 15:13:38;;;;;;;5.75;5.15;;;;;;;;;;6188955;23;20021;-88